sensor_id;sensor_type;location;lat;lon;timestamp;P1;durP1;ratioP1;P2;durP2;ratioP2
1649;SDS011;822;53.670;8.676;2023-03-01T00:01:51;4.20;;;3.73;;
1649;SDS011;822;53.670;8.676;2023-03-01T00:04:18;7.83;;;5.10;;
1649;SDS011;822;53.670;8.676;2023-03-01T00:06:45;5.30;;;4.83;;
1649;SDS011;822;53.670;8.676;2023-03-01T00:09:14;6.37;;;4.43;;
1649;SDS011;822;53.670;8.676;2023-03-01T00:11:41;5.83;;;3.67;;
1649;SDS011;822;53.670;8.676;2023-03-01T00:14:09;3.27;;;2.87;;
1649;SDS011;822;53.670;8.676;2023-03-01T00:16:37;5.37;;;3.87;;
1649;SDS011;822;53.670;8.676;2023-03-01T00:19:05;3.77;;;3.47;;
1649;SDS011;822;53.670;8.676;2023-03-01T00:21:33;6.60;;;3.60;;
1649;SDS011;822;53.670;8.676;2023-03-01T00:24:01;3.30;;;2.00;;
1649;SDS011;822;53.670;8.676;2023-03-01T00:26:30;4.10;;;3.70;;
1649;SDS011;822;53.670;8.676;2023-03-01T00:28:57;5.90;;;4.53;;
1649;SDS011;822;53.670;8.676;2023-03-01T00:31:26;2.43;;;2.30;;
1649;SDS011;822;53.670;8.676;2023-03-01T00:33:54;2.93;;;2.73;;
1649;SDS011;822;53.670;8.676;2023-03-01T00:36:22;3.37;;;2.40;;
1649;SDS011;822;53.670;8.676;2023-03-01T00:38:50;6.50;;;5.10;;
1649;SDS011;822;53.670;8.676;2023-03-01T00:41:18;4.30;;;3.40;;
1649;SDS011;822;53.670;8.676;2023-03-01T00:43:49;3.30;;;3.00;;
1649;SDS011;822;53.670;8.676;2023-03-01T00:46:21;3.07;;;2.67;;
1649;SDS011;822;53.670;8.676;2023-03-01T00:48:50;3.30;;;3.00;;
1649;SDS011;822;53.670;8.676;2023-03-01T00:51:17;3.77;;;3.40;;
1649;SDS011;822;53.670;8.676;2023-03-01T00:53:46;8.20;;;4.50;;
1649;SDS011;822;53.670;8.676;2023-03-01T00:56:16;3.63;;;2.50;;
1649;SDS011;822;53.670;8.676;2023-03-01T00:58:43;4.50;;;4.13;;
1649;SDS011;822;53.670;8.676;2023-03-01T01:01:12;4.87;;;3.80;;
1649;SDS011;822;53.670;8.676;2023-03-01T01:03:44;9.33;;;4.50;;
1649;SDS011;822;53.670;8.676;2023-03-01T01:06:15;3.93;;;3.43;;
1649;SDS011;822;53.670;8.676;2023-03-01T01:08:45;5.90;;;4.03;;
1649;SDS011;822;53.670;8.676;2023-03-01T01:11:12;3.33;;;2.73;;
1649;SDS011;822;53.670;8.676;2023-03-01T01:13:39;6.47;;;4.47;;
1649;SDS011;822;53.670;8.676;2023-03-01T01:16:07;6.33;;;2.93;;
1649;SDS011;822;53.670;8.676;2023-03-01T01:18:36;4.10;;;3.60;;
1649;SDS011;822;53.670;8.676;2023-03-01T01:21:04;4.77;;;4.37;;
1649;SDS011;822;53.670;8.676;2023-03-01T01:23:32;6.07;;;4.70;;
1649;SDS011;822;53.670;8.676;2023-03-01T01:26:03;6.97;;;6.20;;
1649;SDS011;822;53.670;8.676;2023-03-01T01:28:31;4.17;;;3.47;;
1649;SDS011;822;53.670;8.676;2023-03-01T01:30:58;4.40;;;3.10;;
1649;SDS011;822;53.670;8.676;2023-03-01T01:33:26;7.03;;;3.80;;
1649;SDS011;822;53.670;8.676;2023-03-01T01:35:54;4.73;;;2.63;;
1649;SDS011;822;53.670;8.676;2023-03-01T01:38:22;5.17;;;4.43;;
1649;SDS011;822;53.670;8.676;2023-03-01T01:40:49;2.47;;;2.33;;
1649;SDS011;822;53.670;8.676;2023-03-01T01:43:18;9.20;;;4.50;;
1649;SDS011;822;53.670;8.676;2023-03-01T01:45:47;4.07;;;3.70;;
1649;SDS011;822;53.670;8.676;2023-03-01T01:48:16;3.57;;;3.30;;
1649;SDS011;822;53.670;8.676;2023-03-01T01:50:48;3.07;;;2.87;;
1649;SDS011;822;53.670;8.676;2023-03-01T01:53:23;4.30;;;4.00;;
1649;SDS011;822;53.670;8.676;2023-03-01T01:55:51;8.73;;;5.70;;
1649;SDS011;822;53.670;8.676;2023-03-01T01:58:22;5.30;;;3.73;;
1649;SDS011;822;53.670;8.676;2023-03-01T02:00:52;2.50;;;2.27;;
1649;SDS011;822;53.670;8.676;2023-03-01T02:03:20;3.43;;;3.13;;
1649;SDS011;822;53.670;8.676;2023-03-01T02:05:55;4.90;;;4.50;;
1649;SDS011;822;53.670;8.676;2023-03-01T02:08:29;3.23;;;2.93;;
1649;SDS011;822;53.670;8.676;2023-03-01T02:10:59;2.83;;;2.30;;
1649;SDS011;822;53.670;8.676;2023-03-01T02:13:30;4.73;;;2.40;;
1649;SDS011;822;53.670;8.676;2023-03-01T02:15:57;3.67;;;3.37;;
1649;SDS011;822;53.670;8.676;2023-03-01T02:18:25;3.10;;;2.37;;
1649;SDS011;822;53.670;8.676;2023-03-01T02:21:01;3.83;;;3.07;;
1649;SDS011;822;53.670;8.676;2023-03-01T02:23:41;4.73;;;3.10;;
1649;SDS011;822;53.670;8.676;2023-03-01T02:26:11;3.23;;;3.03;;
1649;SDS011;822;53.670;8.676;2023-03-01T02:28:46;2.80;;;2.70;;
1649;SDS011;822;53.670;8.676;2023-03-01T02:31:14;3.30;;;2.27;;
1649;SDS011;822;53.670;8.676;2023-03-01T02:34:01;3.23;;;2.60;;
1649;SDS011;822;53.670;8.676;2023-03-01T02:36:30;7.50;;;4.60;;
1649;SDS011;822;53.670;8.676;2023-03-01T02:39:02;6.40;;;2.93;;
1649;SDS011;822;53.670;8.676;2023-03-01T02:41:32;2.40;;;2.23;;
1649;SDS011;822;53.670;8.676;2023-03-01T02:44:04;2.70;;;2.50;;
1649;SDS011;822;53.670;8.676;2023-03-01T02:46:31;2.73;;;2.50;;
1649;SDS011;822;53.670;8.676;2023-03-01T02:48:59;3.20;;;2.80;;
1649;SDS011;822;53.670;8.676;2023-03-01T02:51:42;5.23;;;3.13;;
1649;SDS011;822;53.670;8.676;2023-03-01T02:54:16;2.33;;;2.17;;
1649;SDS011;822;53.670;8.676;2023-03-01T02:56:53;5.93;;;3.90;;
1649;SDS011;822;53.670;8.676;2023-03-01T02:59:22;5.50;;;4.47;;
1649;SDS011;822;53.670;8.676;2023-03-01T03:01:54;2.77;;;2.00;;
1649;SDS011;822;53.670;8.676;2023-03-01T03:04:21;3.20;;;2.90;;
1649;SDS011;822;53.670;8.676;2023-03-01T03:06:50;4.80;;;4.40;;
1649;SDS011;822;53.670;8.676;2023-03-01T03:09:17;2.83;;;2.50;;
1649;SDS011;822;53.670;8.676;2023-03-01T03:11:45;5.83;;;5.33;;
1649;SDS011;822;53.670;8.676;2023-03-01T03:14:13;3.90;;;3.57;;
1649;SDS011;822;53.670;8.676;2023-03-01T03:16:44;2.53;;;2.40;;
1649;SDS011;822;53.670;8.676;2023-03-01T03:19:13;5.13;;;2.80;;
1649;SDS011;822;53.670;8.676;2023-03-01T03:21:41;1.73;;;1.63;;
1649;SDS011;822;53.670;8.676;2023-03-01T03:24:09;2.80;;;2.60;;
1649;SDS011;822;53.670;8.676;2023-03-01T03:26:36;2.40;;;2.30;;
1649;SDS011;822;53.670;8.676;2023-03-01T03:29:03;2.67;;;2.57;;
1649;SDS011;822;53.670;8.676;2023-03-01T03:31:31;2.17;;;2.03;;
1649;SDS011;822;53.670;8.676;2023-03-01T03:33:59;3.83;;;3.37;;
1649;SDS011;822;53.670;8.676;2023-03-01T03:36:27;3.30;;;2.93;;
1649;SDS011;822;53.670;8.676;2023-03-01T03:38:54;3.37;;;2.97;;
1649;SDS011;822;53.670;8.676;2023-03-01T03:41:21;7.07;;;4.23;;
1649;SDS011;822;53.670;8.676;2023-03-01T03:43:48;4.87;;;3.57;;
1649;SDS011;822;53.670;8.676;2023-03-01T03:46:15;4.33;;;4.00;;
1649;SDS011;822;53.670;8.676;2023-03-01T03:48:43;3.60;;;3.30;;
1649;SDS011;822;53.670;8.676;2023-03-01T03:51:12;3.87;;;3.40;;
1649;SDS011;822;53.670;8.676;2023-03-01T03:53:40;4.33;;;3.63;;
1649;SDS011;822;53.670;8.676;2023-03-01T03:56:08;3.70;;;1.97;;
1649;SDS011;822;53.670;8.676;2023-03-01T03:58:35;5.73;;;5.17;;
1649;SDS011;822;53.670;8.676;2023-03-01T04:01:03;3.37;;;3.03;;
1649;SDS011;822;53.670;8.676;2023-03-01T04:03:31;7.23;;;4.27;;
1649;SDS011;822;53.670;8.676;2023-03-01T04:06:00;4.60;;;4.20;;
1649;SDS011;822;53.670;8.676;2023-03-01T04:08:29;2.83;;;2.40;;
1649;SDS011;822;53.670;8.676;2023-03-01T04:10:57;6.30;;;3.83;;
1649;SDS011;822;53.670;8.676;2023-03-01T04:13:46;2.70;;;2.47;;
1649;SDS011;822;53.670;8.676;2023-03-01T04:16:13;7.43;;;3.07;;
1649;SDS011;822;53.670;8.676;2023-03-01T04:18:40;3.57;;;3.27;;
1649;SDS011;822;53.670;8.676;2023-03-01T04:21:07;6.60;;;4.13;;
1649;SDS011;822;53.670;8.676;2023-03-01T04:23:37;8.90;;;4.67;;
1649;SDS011;822;53.670;8.676;2023-03-01T04:26:05;6.13;;;4.93;;
1649;SDS011;822;53.670;8.676;2023-03-01T04:28:34;2.10;;;2.00;;
1649;SDS011;822;53.670;8.676;2023-03-01T04:31:03;5.00;;;4.70;;
1649;SDS011;822;53.670;8.676;2023-03-01T04:33:38;3.27;;;2.97;;
1649;SDS011;822;53.670;8.676;2023-03-01T04:36:07;4.70;;;3.50;;
1649;SDS011;822;53.670;8.676;2023-03-01T04:38:37;4.30;;;4.10;;
1649;SDS011;822;53.670;8.676;2023-03-01T04:41:04;4.57;;;3.43;;
1649;SDS011;822;53.670;8.676;2023-03-01T04:43:33;2.83;;;2.70;;
1649;SDS011;822;53.670;8.676;2023-03-01T04:46:01;6.30;;;2.67;;
1649;SDS011;822;53.670;8.676;2023-03-01T04:48:29;5.10;;;3.73;;
1649;SDS011;822;53.670;8.676;2023-03-01T04:50:57;3.57;;;3.47;;
1649;SDS011;822;53.670;8.676;2023-03-01T04:53:25;8.13;;;4.07;;
1649;SDS011;822;53.670;8.676;2023-03-01T04:55:55;3.20;;;3.00;;
1649;SDS011;822;53.670;8.676;2023-03-01T04:58:22;7.43;;;5.03;;
1649;SDS011;822;53.670;8.676;2023-03-01T05:00:50;4.13;;;3.00;;
1649;SDS011;822;53.670;8.676;2023-03-01T05:03:17;6.37;;;4.23;;
1649;SDS011;822;53.670;8.676;2023-03-01T05:05:45;3.20;;;2.87;;
1649;SDS011;822;53.670;8.676;2023-03-01T05:08:13;2.90;;;2.70;;
1649;SDS011;822;53.670;8.676;2023-03-01T05:10:43;5.27;;;3.40;;
1649;SDS011;822;53.670;8.676;2023-03-01T05:13:14;5.07;;;3.93;;
1649;SDS011;822;53.670;8.676;2023-03-01T05:15:46;3.17;;;2.87;;
1649;SDS011;822;53.670;8.676;2023-03-01T05:18:16;3.60;;;3.30;;
1649;SDS011;822;53.670;8.676;2023-03-01T05:20:43;3.27;;;1.67;;
1649;SDS011;822;53.670;8.676;2023-03-01T05:23:11;6.40;;;4.17;;
1649;SDS011;822;53.670;8.676;2023-03-01T05:25:41;3.30;;;2.87;;
1649;SDS011;822;53.670;8.676;2023-03-01T05:28:09;3.77;;;3.13;;
1649;SDS011;822;53.670;8.676;2023-03-01T05:30:39;2.90;;;2.10;;
1649;SDS011;822;53.670;8.676;2023-03-01T05:33:07;4.30;;;3.07;;
1649;SDS011;822;53.670;8.676;2023-03-01T05:35:38;5.20;;;3.40;;
1649;SDS011;822;53.670;8.676;2023-03-01T05:38:06;5.40;;;2.33;;
1649;SDS011;822;53.670;8.676;2023-03-01T05:40:33;8.47;;;2.57;;
1649;SDS011;822;53.670;8.676;2023-03-01T05:43:00;2.87;;;2.60;;
1649;SDS011;822;53.670;8.676;2023-03-01T05:45:30;4.67;;;3.77;;
1649;SDS011;822;53.670;8.676;2023-03-01T05:47:59;3.87;;;2.90;;
1649;SDS011;822;53.670;8.676;2023-03-01T05:50:27;3.80;;;2.23;;
1649;SDS011;822;53.670;8.676;2023-03-01T05:52:59;4.03;;;3.73;;
1649;SDS011;822;53.670;8.676;2023-03-01T05:55:32;8.13;;;3.03;;
1649;SDS011;822;53.670;8.676;2023-03-01T05:58:00;9.57;;;3.37;;
1649;SDS011;822;53.670;8.676;2023-03-01T06:00:28;4.30;;;3.30;;
1649;SDS011;822;53.670;8.676;2023-03-01T06:02:56;5.20;;;3.37;;
1649;SDS011;822;53.670;8.676;2023-03-01T06:05:26;3.60;;;3.37;;
1649;SDS011;822;53.670;8.676;2023-03-01T06:07:54;7.30;;;3.80;;
1649;SDS011;822;53.670;8.676;2023-03-01T06:10:21;5.30;;;2.83;;
1649;SDS011;822;53.670;8.676;2023-03-01T06:12:48;5.27;;;4.50;;
1649;SDS011;822;53.670;8.676;2023-03-01T06:15:16;3.23;;;2.40;;
1649;SDS011;822;53.670;8.676;2023-03-01T06:17:44;3.47;;;2.63;;
1649;SDS011;822;53.670;8.676;2023-03-01T06:20:12;5.73;;;4.60;;
1649;SDS011;822;53.670;8.676;2023-03-01T06:22:42;4.97;;;4.67;;
1649;SDS011;822;53.670;8.676;2023-03-01T06:25:10;3.50;;;3.10;;
1649;SDS011;822;53.670;8.676;2023-03-01T06:27:39;4.43;;;3.10;;
1649;SDS011;822;53.670;8.676;2023-03-01T06:30:07;2.23;;;2.07;;
1649;SDS011;822;53.670;8.676;2023-03-01T06:32:35;9.43;;;3.50;;
1649;SDS011;822;53.670;8.676;2023-03-01T06:35:03;5.00;;;3.43;;
1649;SDS011;822;53.670;8.676;2023-03-01T06:37:30;3.87;;;3.43;;
1649;SDS011;822;53.670;8.676;2023-03-01T06:39:59;4.13;;;3.83;;
1649;SDS011;822;53.670;8.676;2023-03-01T06:42:29;4.03;;;3.17;;
1649;SDS011;822;53.670;8.676;2023-03-01T06:44:56;4.67;;;4.27;;
1649;SDS011;822;53.670;8.676;2023-03-01T06:47:24;4.77;;;4.47;;
1649;SDS011;822;53.670;8.676;2023-03-01T06:49:51;4.67;;;2.30;;
1649;SDS011;822;53.670;8.676;2023-03-01T06:52:18;3.47;;;3.30;;
1649;SDS011;822;53.670;8.676;2023-03-01T06:54:45;5.97;;;3.50;;
1649;SDS011;822;53.670;8.676;2023-03-01T06:57:13;5.03;;;2.83;;
1649;SDS011;822;53.670;8.676;2023-03-01T06:59:40;5.20;;;3.53;;
1649;SDS011;822;53.670;8.676;2023-03-01T07:02:09;5.83;;;3.03;;
1649;SDS011;822;53.670;8.676;2023-03-01T07:04:36;4.83;;;4.23;;
1649;SDS011;822;53.670;8.676;2023-03-01T07:07:03;4.27;;;3.30;;
1649;SDS011;822;53.670;8.676;2023-03-01T07:09:30;3.70;;;3.40;;
1649;SDS011;822;53.670;8.676;2023-03-01T07:11:58;2.93;;;2.73;;
1649;SDS011;822;53.670;8.676;2023-03-01T07:14:26;8.20;;;5.90;;
1649;SDS011;822;53.670;8.676;2023-03-01T07:16:54;3.63;;;3.23;;
1649;SDS011;822;53.670;8.676;2023-03-01T07:19:21;3.33;;;2.40;;
1649;SDS011;822;53.670;8.676;2023-03-01T07:21:49;4.40;;;2.37;;
1649;SDS011;822;53.670;8.676;2023-03-01T07:24:19;6.27;;;3.30;;
1649;SDS011;822;53.670;8.676;2023-03-01T07:26:48;5.00;;;4.60;;
1649;SDS011;822;53.670;8.676;2023-03-01T07:29:15;6.97;;;5.57;;
1649;SDS011;822;53.670;8.676;2023-03-01T07:31:45;3.83;;;2.93;;
1649;SDS011;822;53.670;8.676;2023-03-01T07:34:12;5.33;;;3.80;;
1649;SDS011;822;53.670;8.676;2023-03-01T07:36:42;5.97;;;4.67;;
1649;SDS011;822;53.670;8.676;2023-03-01T07:39:10;5.80;;;3.23;;
1649;SDS011;822;53.670;8.676;2023-03-01T07:41:37;4.00;;;3.53;;
1649;SDS011;822;53.670;8.676;2023-03-01T07:44:04;3.77;;;3.33;;
1649;SDS011;822;53.670;8.676;2023-03-01T07:46:32;2.70;;;2.50;;
1649;SDS011;822;53.670;8.676;2023-03-01T07:49:03;4.87;;;3.87;;
1649;SDS011;822;53.670;8.676;2023-03-01T07:51:30;4.73;;;4.33;;
1649;SDS011;822;53.670;8.676;2023-03-01T07:53:57;4.50;;;4.10;;
1649;SDS011;822;53.670;8.676;2023-03-01T07:56:25;8.27;;;3.50;;
1649;SDS011;822;53.670;8.676;2023-03-01T07:58:52;2.93;;;2.60;;
1649;SDS011;822;53.670;8.676;2023-03-01T08:01:20;3.50;;;2.93;;
1649;SDS011;822;53.670;8.676;2023-03-01T08:03:47;4.20;;;3.23;;
1649;SDS011;822;53.670;8.676;2023-03-01T08:06:16;4.43;;;3.87;;
1649;SDS011;822;53.670;8.676;2023-03-01T08:08:44;4.40;;;3.43;;
1649;SDS011;822;53.670;8.676;2023-03-01T08:11:12;5.17;;;3.93;;
1649;SDS011;822;53.670;8.676;2023-03-01T08:13:41;12.83;;;6.13;;
1649;SDS011;822;53.670;8.676;2023-03-01T08:16:10;5.17;;;4.47;;
1649;SDS011;822;53.670;8.676;2023-03-01T08:18:38;3.37;;;3.07;;
1649;SDS011;822;53.670;8.676;2023-03-01T08:21:05;8.63;;;4.97;;
1649;SDS011;822;53.670;8.676;2023-03-01T08:23:35;5.30;;;3.50;;
1649;SDS011;822;53.670;8.676;2023-03-01T08:26:04;8.50;;;4.90;;
1649;SDS011;822;53.670;8.676;2023-03-01T08:28:33;5.23;;;4.73;;
1649;SDS011;822;53.670;8.676;2023-03-01T08:31:00;6.40;;;3.77;;
1649;SDS011;822;53.670;8.676;2023-03-01T08:33:29;3.27;;;2.73;;
1649;SDS011;822;53.670;8.676;2023-03-01T08:36:08;6.70;;;5.97;;
1649;SDS011;822;53.670;8.676;2023-03-01T08:38:40;5.00;;;4.53;;
1649;SDS011;822;53.670;8.676;2023-03-01T08:41:07;4.23;;;3.20;;
1649;SDS011;822;53.670;8.676;2023-03-01T08:43:34;3.77;;;2.90;;
1649;SDS011;822;53.670;8.676;2023-03-01T08:46:01;4.63;;;3.77;;
1649;SDS011;822;53.670;8.676;2023-03-01T08:48:28;5.27;;;4.80;;
1649;SDS011;822;53.670;8.676;2023-03-01T08:50:55;5.50;;;4.93;;
1649;SDS011;822;53.670;8.676;2023-03-01T08:53:22;4.33;;;2.40;;
1649;SDS011;822;53.670;8.676;2023-03-01T08:55:51;7.80;;;4.10;;
1649;SDS011;822;53.670;8.676;2023-03-01T08:58:18;6.73;;;4.77;;
1649;SDS011;822;53.670;8.676;2023-03-01T09:00:45;2.10;;;2.00;;
1649;SDS011;822;53.670;8.676;2023-03-01T09:03:12;4.80;;;3.20;;
1649;SDS011;822;53.670;8.676;2023-03-01T09:05:39;4.93;;;2.70;;
1649;SDS011;822;53.670;8.676;2023-03-01T09:08:12;5.53;;;4.33;;
1649;SDS011;822;53.670;8.676;2023-03-01T09:10:39;4.90;;;4.47;;
1649;SDS011;822;53.670;8.676;2023-03-01T09:13:17;8.97;;;4.30;;
1649;SDS011;822;53.670;8.676;2023-03-01T09:15:44;5.60;;;4.63;;
1649;SDS011;822;53.670;8.676;2023-03-01T09:18:11;6.33;;;5.80;;
1649;SDS011;822;53.670;8.676;2023-03-01T09:20:39;8.40;;;3.70;;
1649;SDS011;822;53.670;8.676;2023-03-01T09:23:06;6.33;;;4.33;;
1649;SDS011;822;53.670;8.676;2023-03-01T09:25:34;8.07;;;5.53;;
1649;SDS011;822;53.670;8.676;2023-03-01T09:28:01;6.53;;;4.80;;
1649;SDS011;822;53.670;8.676;2023-03-01T09:30:30;10.13;;;6.80;;
1649;SDS011;822;53.670;8.676;2023-03-01T09:32:57;8.60;;;4.37;;
1649;SDS011;822;53.670;8.676;2023-03-01T09:35:24;9.10;;;5.50;;
1649;SDS011;822;53.670;8.676;2023-03-01T09:37:51;5.80;;;4.37;;
1649;SDS011;822;53.670;8.676;2023-03-01T09:40:19;7.37;;;4.33;;
1649;SDS011;822;53.670;8.676;2023-03-01T09:42:53;10.20;;;6.93;;
1649;SDS011;822;53.670;8.676;2023-03-01T09:45:27;5.30;;;4.70;;
1649;SDS011;822;53.670;8.676;2023-03-01T09:48:00;10.17;;;6.23;;
1649;SDS011;822;53.670;8.676;2023-03-01T09:50:32;8.70;;;6.50;;
1649;SDS011;822;53.670;8.676;2023-03-01T09:53:02;4.60;;;3.33;;
1649;SDS011;822;53.670;8.676;2023-03-01T09:55:37;11.30;;;6.40;;
1649;SDS011;822;53.670;8.676;2023-03-01T09:58:14;7.03;;;4.93;;
1649;SDS011;822;53.670;8.676;2023-03-01T10:00:57;7.13;;;3.80;;
1649;SDS011;822;53.670;8.676;2023-03-01T10:03:31;7.13;;;5.00;;
1649;SDS011;822;53.670;8.676;2023-03-01T10:06:06;5.97;;;4.17;;
1649;SDS011;822;53.670;8.676;2023-03-01T10:08:40;8.77;;;5.67;;
1649;SDS011;822;53.670;8.676;2023-03-01T10:11:17;9.60;;;5.80;;
1649;SDS011;822;53.670;8.676;2023-03-01T10:13:48;6.77;;;6.20;;
1649;SDS011;822;53.670;8.676;2023-03-01T10:16:23;7.50;;;6.10;;
1649;SDS011;822;53.670;8.676;2023-03-01T10:18:55;6.73;;;4.87;;
1649;SDS011;822;53.670;8.676;2023-03-01T10:21:26;8.50;;;7.17;;
1649;SDS011;822;53.670;8.676;2023-03-01T10:23:57;6.20;;;5.60;;
1649;SDS011;822;53.670;8.676;2023-03-01T10:29:23;13.83;;;7.27;;
1649;SDS011;822;53.670;8.676;2023-03-01T10:31:58;6.20;;;4.47;;
1649;SDS011;822;53.670;8.676;2023-03-01T10:34:31;8.70;;;6.83;;
1649;SDS011;822;53.670;8.676;2023-03-01T10:37:01;9.20;;;6.00;;
1649;SDS011;822;53.670;8.676;2023-03-01T10:39:36;9.60;;;6.60;;
1649;SDS011;822;53.670;8.676;2023-03-01T10:42:04;10.83;;;6.80;;
1649;SDS011;822;53.670;8.676;2023-03-01T10:44:36;10.03;;;5.90;;
1649;SDS011;822;53.670;8.676;2023-03-01T10:47:20;9.43;;;6.97;;
1649;SDS011;822;53.670;8.676;2023-03-01T10:49:56;9.80;;;6.00;;
1649;SDS011;822;53.670;8.676;2023-03-01T10:52:32;11.50;;;7.60;;
1649;SDS011;822;53.670;8.676;2023-03-01T10:55:01;9.63;;;6.60;;
1649;SDS011;822;53.670;8.676;2023-03-01T10:57:32;8.50;;;6.73;;
1649;SDS011;822;53.670;8.676;2023-03-01T11:00:16;11.40;;;6.97;;
1649;SDS011;822;53.670;8.676;2023-03-01T11:03:01;11.70;;;7.40;;
1649;SDS011;822;53.670;8.676;2023-03-01T11:05:35;11.80;;;9.00;;
1649;SDS011;822;53.670;8.676;2023-03-01T11:08:02;12.83;;;9.40;;
1649;SDS011;822;53.670;8.676;2023-03-01T11:10:30;10.50;;;7.33;;
1649;SDS011;822;53.670;8.676;2023-03-01T11:13:05;9.40;;;6.90;;
1649;SDS011;822;53.670;8.676;2023-03-01T11:15:34;10.43;;;6.80;;
1649;SDS011;822;53.670;8.676;2023-03-01T11:18:03;9.10;;;6.83;;
1649;SDS011;822;53.670;8.676;2023-03-01T11:20:31;13.20;;;8.17;;
1649;SDS011;822;53.670;8.676;2023-03-01T11:23:01;11.40;;;7.30;;
1649;SDS011;822;53.670;8.676;2023-03-01T11:25:33;9.53;;;6.37;;
1649;SDS011;822;53.670;8.676;2023-03-01T11:28:04;12.27;;;9.10;;
1649;SDS011;822;53.670;8.676;2023-03-01T11:30:34;9.30;;;7.60;;
1649;SDS011;822;53.670;8.676;2023-03-01T11:33:16;11.30;;;5.93;;
1649;SDS011;822;53.670;8.676;2023-03-01T11:35:47;8.57;;;5.80;;
1649;SDS011;822;53.670;8.676;2023-03-01T11:38:21;11.00;;;7.37;;
1649;SDS011;822;53.670;8.676;2023-03-01T11:40:51;13.80;;;6.77;;
1649;SDS011;822;53.670;8.676;2023-03-01T11:43:26;9.00;;;6.57;;
1649;SDS011;822;53.670;8.676;2023-03-01T11:46:11;8.80;;;6.80;;
1649;SDS011;822;53.670;8.676;2023-03-01T11:49:05;7.70;;;6.30;;
1649;SDS011;822;53.670;8.676;2023-03-01T11:51:47;9.20;;;6.73;;
1649;SDS011;822;53.670;8.676;2023-03-01T11:54:23;9.83;;;7.70;;
1649;SDS011;822;53.670;8.676;2023-03-01T11:56:57;6.93;;;5.40;;
1649;SDS011;822;53.670;8.676;2023-03-01T12:02:28;8.53;;;5.83;;
1649;SDS011;822;53.670;8.676;2023-03-01T12:05:40;7.10;;;5.70;;
1649;SDS011;822;53.670;8.676;2023-03-01T12:08:24;9.53;;;6.50;;
1649;SDS011;822;53.670;8.676;2023-03-01T12:11:01;8.77;;;6.30;;
1649;SDS011;822;53.670;8.676;2023-03-01T12:13:50;8.40;;;6.47;;
1649;SDS011;822;53.670;8.676;2023-03-01T12:16:33;7.67;;;6.20;;
1649;SDS011;822;53.670;8.676;2023-03-01T12:22:16;10.63;;;6.60;;
1649;SDS011;822;53.670;8.676;2023-03-01T12:27:57;6.57;;;5.40;;
1649;SDS011;822;53.670;8.676;2023-03-01T12:30:48;7.53;;;5.87;;
1649;SDS011;822;53.670;8.676;2023-03-01T12:33:26;6.27;;;5.67;;
1649;SDS011;822;53.670;8.676;2023-03-01T12:39:10;6.70;;;5.33;;
1649;SDS011;822;53.670;8.676;2023-03-01T12:41:52;7.60;;;4.90;;
1649;SDS011;822;53.670;8.676;2023-03-01T12:44:32;7.47;;;5.40;;
1649;SDS011;822;53.670;8.676;2023-03-01T12:47:26;5.53;;;4.77;;
1649;SDS011;822;53.670;8.676;2023-03-01T12:50:01;6.53;;;4.63;;
1649;SDS011;822;53.670;8.676;2023-03-01T12:52:33;6.47;;;4.80;;
1649;SDS011;822;53.670;8.676;2023-03-01T12:55:08;7.57;;;5.43;;
1649;SDS011;822;53.670;8.676;2023-03-01T12:57:48;5.90;;;4.73;;
1649;SDS011;822;53.670;8.676;2023-03-01T13:00:25;5.20;;;4.70;;
1649;SDS011;822;53.670;8.676;2023-03-01T13:02:59;7.50;;;5.50;;
1649;SDS011;822;53.670;8.676;2023-03-01T13:05:39;6.97;;;5.40;;
1649;SDS011;822;53.670;8.676;2023-03-01T13:08:15;5.57;;;4.53;;
1649;SDS011;822;53.670;8.676;2023-03-01T13:10:50;5.47;;;4.00;;
1649;SDS011;822;53.670;8.676;2023-03-01T13:13:23;5.63;;;5.03;;
1649;SDS011;822;53.670;8.676;2023-03-01T13:15:52;6.10;;;4.53;;
1649;SDS011;822;53.670;8.676;2023-03-01T13:18:31;5.90;;;5.33;;
1649;SDS011;822;53.670;8.676;2023-03-01T13:21:00;8.93;;;3.80;;
1649;SDS011;822;53.670;8.676;2023-03-01T13:23:30;6.10;;;4.40;;
1649;SDS011;822;53.670;8.676;2023-03-01T13:26:09;5.37;;;4.90;;
1649;SDS011;822;53.670;8.676;2023-03-01T13:28:46;5.60;;;4.40;;
1649;SDS011;822;53.670;8.676;2023-03-01T13:34:51;4.73;;;4.33;;
1649;SDS011;822;53.670;8.676;2023-03-01T13:37:30;4.87;;;4.30;;
1649;SDS011;822;53.670;8.676;2023-03-01T13:45:55;5.17;;;4.67;;
1649;SDS011;822;53.670;8.676;2023-03-01T13:48:26;6.53;;;4.33;;
1649;SDS011;822;53.670;8.676;2023-03-01T13:50:55;4.20;;;3.80;;
1649;SDS011;822;53.670;8.676;2023-03-01T13:53:26;5.43;;;4.67;;
1649;SDS011;822;53.670;8.676;2023-03-01T13:55:57;5.40;;;3.70;;
1649;SDS011;822;53.670;8.676;2023-03-01T13:58:29;6.80;;;5.33;;
1649;SDS011;822;53.670;8.676;2023-03-01T14:00:58;4.33;;;3.60;;
1649;SDS011;822;53.670;8.676;2023-03-01T14:03:26;6.50;;;4.60;;
1649;SDS011;822;53.670;8.676;2023-03-01T14:05:59;5.80;;;4.70;;
1649;SDS011;822;53.670;8.676;2023-03-01T14:08:31;4.47;;;3.90;;
1649;SDS011;822;53.670;8.676;2023-03-01T14:11:07;5.87;;;5.10;;
1649;SDS011;822;53.670;8.676;2023-03-01T14:20:17;5.53;;;4.70;;
1649;SDS011;822;53.670;8.676;2023-03-01T14:22:46;4.47;;;3.50;;
1649;SDS011;822;53.670;8.676;2023-03-01T14:25:20;5.73;;;3.27;;
1649;SDS011;822;53.670;8.676;2023-03-01T14:27:56;4.87;;;4.10;;
1649;SDS011;822;53.670;8.676;2023-03-01T14:30:31;6.67;;;4.50;;
1649;SDS011;822;53.670;8.676;2023-03-01T14:33:02;5.60;;;4.00;;
1649;SDS011;822;53.670;8.676;2023-03-01T14:35:31;7.30;;;5.10;;
1649;SDS011;822;53.670;8.676;2023-03-01T14:37:59;5.10;;;4.13;;
1649;SDS011;822;53.670;8.676;2023-03-01T14:40:27;8.80;;;4.20;;
1649;SDS011;822;53.670;8.676;2023-03-01T14:42:56;7.53;;;3.90;;
1649;SDS011;822;53.670;8.676;2023-03-01T14:45:26;4.70;;;3.80;;
1649;SDS011;822;53.670;8.676;2023-03-01T14:47:58;6.90;;;4.33;;
1649;SDS011;822;53.670;8.676;2023-03-01T14:50:27;4.83;;;3.70;;
1649;SDS011;822;53.670;8.676;2023-03-01T14:52:57;3.37;;;3.03;;
1649;SDS011;822;53.670;8.676;2023-03-01T14:55:27;5.40;;;3.73;;
1649;SDS011;822;53.670;8.676;2023-03-01T14:57:57;5.33;;;3.07;;
1649;SDS011;822;53.670;8.676;2023-03-01T15:00:25;3.53;;;2.83;;
1649;SDS011;822;53.670;8.676;2023-03-01T15:02:54;4.17;;;3.77;;
1649;SDS011;822;53.670;8.676;2023-03-01T15:05:27;3.93;;;2.73;;
1649;SDS011;822;53.670;8.676;2023-03-01T15:07:56;3.67;;;2.83;;
1649;SDS011;822;53.670;8.676;2023-03-01T15:10:26;3.10;;;2.80;;
1649;SDS011;822;53.670;8.676;2023-03-01T15:13:09;2.30;;;2.10;;
1649;SDS011;822;53.670;8.676;2023-03-01T15:15:38;2.77;;;2.10;;
1649;SDS011;822;53.670;8.676;2023-03-01T15:18:15;6.03;;;3.23;;
1649;SDS011;822;53.670;8.676;2023-03-01T15:20:44;6.80;;;3.10;;
1649;SDS011;822;53.670;8.676;2023-03-01T15:23:18;6.43;;;3.53;;
1649;SDS011;822;53.670;8.676;2023-03-01T15:25:48;11.70;;;7.30;;
1649;SDS011;822;53.670;8.676;2023-03-01T15:28:22;9.27;;;5.13;;
1649;SDS011;822;53.670;8.676;2023-03-01T15:30:57;5.30;;;3.97;;
1649;SDS011;822;53.670;8.676;2023-03-01T15:33:33;2.17;;;1.93;;
1649;SDS011;822;53.670;8.676;2023-03-01T15:36:03;6.97;;;4.60;;
1649;SDS011;822;53.670;8.676;2023-03-01T15:38:52;3.33;;;3.00;;
1649;SDS011;822;53.670;8.676;2023-03-01T15:41:24;3.33;;;2.00;;
1649;SDS011;822;53.670;8.676;2023-03-01T15:43:53;4.93;;;2.60;;
1649;SDS011;822;53.670;8.676;2023-03-01T15:46:31;4.47;;;3.47;;
1649;SDS011;822;53.670;8.676;2023-03-01T15:49:02;10.40;;;4.57;;
1649;SDS011;822;53.670;8.676;2023-03-01T15:51:32;6.10;;;4.40;;
1649;SDS011;822;53.670;8.676;2023-03-01T15:54:02;3.83;;;2.50;;
1649;SDS011;822;53.670;8.676;2023-03-01T15:56:31;4.20;;;3.77;;
1649;SDS011;822;53.670;8.676;2023-03-01T15:59:00;6.30;;;3.80;;
1649;SDS011;822;53.670;8.676;2023-03-01T16:01:31;4.57;;;3.20;;
1649;SDS011;822;53.670;8.676;2023-03-01T16:03:59;6.73;;;4.27;;
1649;SDS011;822;53.670;8.676;2023-03-01T16:06:28;2.70;;;2.10;;
1649;SDS011;822;53.670;8.676;2023-03-01T16:08:55;2.90;;;2.70;;
1649;SDS011;822;53.670;8.676;2023-03-01T16:11:22;2.20;;;2.00;;
1649;SDS011;822;53.670;8.676;2023-03-01T16:13:49;4.07;;;2.57;;
1649;SDS011;822;53.670;8.676;2023-03-01T16:16:16;2.23;;;1.90;;
1649;SDS011;822;53.670;8.676;2023-03-01T16:18:44;5.90;;;4.13;;
1649;SDS011;822;53.670;8.676;2023-03-01T16:21:15;2.90;;;2.33;;
1649;SDS011;822;53.670;8.676;2023-03-01T16:23:45;2.90;;;2.60;;